Time;durP1;ratioP1;P1;durP2;ratioP2;P2;SDS_P1;SDS_P2;PMS_P1;PMS_P2;Temp;Humidity;BMP_temperature;BMP_pressure;BME280_temperature;BME280_humidity;BME280_pressure;Samples;Min_cycle;Max_cycle;Signal;HPM_P1;HPM_P2
2023/09/25 00:01:37;;;;;;;3.40;2.63;;;;;;;8.76;100.00;100906.19;5043875;28;20233;-72
2023/09/25 00:04:02;;;;;;;3.77;2.63;;;;;;;8.70;100.00;100907.28;5054435;28;20173;-67
2023/09/25 00:06:29;;;;;;;2.97;2.50;;;;;;;8.64;100.00;100908.28;5055181;28;20181;-65
2023/09/25 00:08:55;;;;;;;3.60;2.93;;;;;;;8.68;100.00;100909.91;5056277;28;20574;-64
2023/09/25 00:11:20;;;;;;;3.90;2.83;;;;;;;8.61;100.00;100903.28;5037557;28;20263;-69
2023/09/25 00:13:46;;;;;;;4.17;2.90;;;;;;;8.62;100.00;100902.41;5033856;28;20308;-63
2023/09/25 00:16:12;;;;;;;4.57;3.10;;;;;;;8.57;100.00;100899.16;5034818;28;20171;-64
2023/09/25 00:18:38;;;;;;;3.27;2.87;;;;;;;8.55;100.00;100903.50;5028896;28;20333;-64
2023/09/25 00:21:03;;;;;;;2.60;2.40;;;;;;;8.45;100.00;100897.78;5040127;28;20732;-65
2023/09/25 00:23:28;;;;;;;2.83;2.53;;;;;;;8.48;100.00;100902.00;5053080;28;20186;-64
2023/09/25 00:26:03;;;;;;;5.27;2.90;;;;;;;8.47;100.00;100898.63;5053990;28;20177;-64
2023/09/25 00:28:29;;;;;;;3.10;2.80;;;;;;;8.45;100.00;100908.06;5054072;28;20177;-64
2023/09/25 00:30:54;;;;;;;3.20;2.80;;;;;;;8.31;100.00;100903.38;5051192;28;20311;-64
2023/09/25 00:33:19;;;;;;;4.77;3.17;;;;;;;8.35;100.00;100904.94;5049632;28;20219;-64
2023/09/25 00:35:45;;;;;;;2.93;2.70;;;;;;;8.24;100.00;100897.59;5054474;28;20188;-64
2023/09/25 00:38:10;;;;;;;6.77;3.30;;;;;;;8.31;100.00;100900.81;5053681;28;20243;-65
2023/09/25 00:40:36;;;;;;;3.40;2.70;;;;;;;8.32;100.00;100902.50;5048436;28;20225;-63
2023/09/25 00:43:02;;;;;;;4.67;3.23;;;;;;;8.22;100.00;100901.94;5052337;28;20184;-64
2023/09/25 00:45:28;;;;;;;5.07;3.07;;;;;;;8.28;100.00;100900.91;5054408;28;20181;-65
2023/09/25 00:47:54;;;;;;;4.80;3.40;;;;;;;8.28;100.00;100892.38;5053876;28;20178;-66
2023/09/25 00:50:19;;;;;;;8.07;3.40;;;;;;;8.24;100.00;100891.63;5032318;28;20203;-65
2023/09/25 00:52:45;;;;;;;3.00;2.70;;;;;;;8.24;100.00;100894.19;5051732;28;20181;-65
2023/09/25 00:55:15;;;;;;;4.83;3.20;;;;;;;8.14;100.00;100891.09;5043123;28;20664;-65
2023/09/25 00:57:43;;;;;;;4.97;3.20;;;;;;;8.21;100.00;100886.59;5052295;28;20170;-64
2023/09/25 01:00:11;;;;;;;3.37;2.80;;;;;;;8.20;100.00;100890.06;5042678;28;20196;-65
2023/09/25 01:02:40;;;;;;;5.83;2.77;;;;;;;8.05;100.00;100897.34;5067178;28;20178;-64
2023/09/25 01:05:08;;;;;;;4.47;3.00;;;;;;;8.12;100.00;100894.59;5048749;28;20190;-64
2023/09/25 01:07:35;;;;;;;3.30;3.00;;;;;;;8.03;100.00;100901.66;5048190;28;20205;-64
2023/09/25 01:10:14;;;;;;;3.93;3.20;;;;;;;8.03;100.00;100901.66;5051941;28;20193;-63
2023/09/25 01:12:40;;;;;;;3.60;3.10;;;;;;;8.03;100.00;100901.66;5025154;28;20219;-64
2023/09/25 01:15:06;;;;;;;5.37;3.63;;;;;;;8.08;100.00;100906.66;5053240;28;20207;-64
2023/09/25 01:17:32;;;;;;;6.87;3.50;;;;;;;7.96;100.00;100902.75;5051482;28;20707;-65
2023/09/25 01:19:58;;;;;;;4.37;3.30;;;;;;;7.96;100.00;100900.19;5053050;28;20193;-64
2023/09/25 01:22:23;;;;;;;4.83;3.03;;;;;;;7.93;100.00;100902.03;5040162;28;20746;-65
2023/09/25 01:24:49;;;;;;;4.83;2.93;;;;;;;8.06;100.00;100901.59;5052342;28;20238;-64
2023/09/25 01:27:14;;;;;;;8.23;3.70;;;;;;;8.00;100.00;100900.94;5050259;28;20201;-65
2023/09/25 01:29:40;;;;;;;4.60;3.40;;;;;;;7.99;100.00;100897.53;5051539;28;20595;-65
2023/09/25 01:32:05;;;;;;;4.40;3.87;;;;;;;7.95;100.00;100890.84;5043610;28;20255;-65
2023/09/25 01:34:31;;;;;;;5.60;3.50;;;;;;;7.98;100.00;100890.72;5052130;28;20189;-65
2023/09/25 01:36:56;;;;;;;4.87;3.50;;;;;;;7.86;100.00;100889.41;5051309;28;20625;-67
2023/09/25 01:39:21;;;;;;;4.33;3.47;;;;;;;7.86;100.00;100886.84;5035481;28;20280;-65
2023/09/25 01:41:47;;;;;;;3.63;3.33;;;;;;;7.89;100.00;100889.28;5052349;28;20224;-65
2023/09/25 01:44:12;;;;;;;4.73;3.33;;;;;;;7.85;100.00;100885.16;5054525;28;20181;-65
2023/09/25 01:46:40;;;;;;;5.30;3.47;;;;;;;7.88;100.00;100879.94;5050768;28;20181;-65
2023/09/25 01:49:06;;;;;;;6.30;3.53;;;;;;;7.82;100.00;100875.00;5050986;28;20223;-65
2023/09/25 01:51:32;;;;;;;3.50;3.20;;;;;;;7.84;100.00;100878.34;5055475;28;20234;-65
2023/09/25 01:53:57;;;;;;;4.00;3.40;;;;;;;7.75;100.00;100873.50;5060076;28;20189;-65
2023/09/25 01:56:22;;;;;;;5.57;3.00;;;;;;;7.68;100.00;100874.59;5051688;28;20230;-65
2023/09/25 01:58:47;;;;;;;7.57;3.80;;;;;;;7.60;100.00;100869.69;5049675;28;20185;-66
2023/09/25 02:01:13;;;;;;;7.50;3.13;;;;;;;7.74;100.00;100870.09;5055515;28;20564;-67
2023/09/25 02:03:38;;;;;;;4.50;3.33;;;;;;;7.72;100.00;100879.56;5058953;28;20581;-66
2023/09/25 02:06:04;;;;;;;3.40;3.03;;;;;;;7.68;100.00;100877.16;5059696;28;20170;-65
2023/09/25 02:08:29;;;;;;;6.37;3.40;;;;;;;7.73;100.00;100875.28;5053950;28;20264;-66
2023/09/25 02:10:55;;;;;;;6.57;3.30;;;;;;;7.68;100.00;100872.84;5040536;28;20225;-66
2023/09/25 02:13:21;;;;;;;4.17;3.67;;;;;;;7.66;100.00;100864.38;5040595;28;20179;-65
2023/09/25 02:15:47;;;;;;;5.00;3.27;;;;;;;7.67;100.00;100871.19;5028999;28;20654;-65
2023/09/25 02:18:12;;;;;;;5.93;3.70;;;;;;;7.64;100.00;100866.16;5022353;28;20265;-65
2023/09/25 02:20:38;;;;;;;6.57;3.10;;;;;;;7.64;100.00;100868.72;5026754;28;20791;-66
2023/09/25 02:23:03;;;;;;;4.57;3.50;;;;;;;7.53;100.00;100863.91;5040821;28;20280;-65
2023/09/25 02:25:28;;;;;;;6.40;3.50;;;;;;;7.57;100.00;100860.38;5032054;28;20205;-65
2023/09/25 02:27:54;;;;;;;6.47;3.17;;;;;;;7.54;100.00;100864.75;5031830;28;20213;-66
2023/09/25 02:30:19;;;;;;;5.07;3.10;;;;;;;7.50;100.00;100861.44;5026522;28;20197;-65
2023/09/25 02:32:45;;;;;;;7.40;3.53;;;;;;;7.48;100.00;100859.78;5064573;28;20219;-65
2023/09/25 02:35:11;;;;;;;4.33;3.90;;;;;;;7.30;100.00;100859.47;5050388;28;20233;-65
2023/09/25 02:37:37;;;;;;;5.50;3.43;;;;;;;7.43;100.00;100852.28;5051745;28;20643;-65
2023/09/25 02:40:06;;;;;;;9.37;3.73;;;;;;;7.41;100.00;100854.84;5045752;28;20230;-67
2023/09/25 02:42:32;;;;;;;4.40;3.40;;;;;;;7.42;100.00;100845.47;5055149;28;20652;-65
2023/09/25 02:44:57;;;;;;;7.70;3.37;;;;;;;7.24;100.00;100851.94;5048614;28;20181;-64
2023/09/25 02:47:22;;;;;;;5.43;3.57;;;;;;;7.33;100.00;100851.72;5051762;28;20225;-65
2023/09/25 02:49:47;;;;;;;3.70;3.40;;;;;;;7.24;100.00;100846.84;5050442;28;20188;-64
2023/09/25 02:52:13;;;;;;;7.00;4.40;;;;;;;7.32;100.00;100852.59;5073025;28;20227;-66
2023/09/25 02:54:38;;;;;;;9.47;3.77;;;;;;;7.30;100.00;100845.84;5051251;28;20180;-65
2023/09/25 02:57:03;;;;;;;8.57;4.17;;;;;;;7.31;100.00;100840.66;5051645;28;20182;-65
2023/09/25 02:59:28;;;;;;;9.47;4.43;;;;;;;7.29;100.00;100851.81;5050977;28;20182;-65
2023/09/25 03:01:54;;;;;;;5.33;3.87;;;;;;;7.31;100.00;100848.34;5039964;28;20294;-65
2023/09/25 03:04:21;;;;;;;8.07;4.17;;;;;;;7.24;100.00;100846.84;5051065;28;20172;-64
2023/09/25 03:06:46;;;;;;;7.30;4.60;;;;;;;7.22;100.00;100846.88;5051118;28;20184;-64
2023/09/25 03:09:11;;;;;;;12.03;3.97;;;;;;;7.23;100.00;100845.16;5050583;28;20201;-64
2023/09/25 03:11:36;;;;;;;6.83;4.03;;;;;;;7.20;100.00;100850.38;5052669;28;20221;-74
2023/09/25 03:14:02;;;;;;;6.50;3.67;;;;;;;7.06;100.00;100848.22;5068820;28;20580;-65
2023/09/25 03:16:27;;;;;;;6.77;3.80;;;;;;;6.95;100.00;100851.88;5051706;28;20185;-65
2023/09/25 03:18:52;;;;;;;3.93;3.50;;;;;;;7.07;100.00;100853.28;5051310;28;20220;-65
2023/09/25 03:21:18;;;;;;;8.77;3.80;;;;;;;7.06;100.00;100855.88;5043051;28;20248;-68
2023/09/25 03:23:45;;;;;;;5.20;4.03;;;;;;;7.07;100.00;100852.41;5031416;28;20189;-66
2023/09/25 03:26:15;;;;;;;5.77;3.33;;;;;;;7.05;100.00;100856.75;5050954;28;20187;-66
2023/09/25 03:28:41;;;;;;;6.53;3.70;;;;;;;7.03;100.00;100859.38;5037728;28;20264;-64
2023/09/25 03:31:07;;;;;;;4.40;3.63;;;;;;;7.02;100.00;100854.28;5000521;28;20245;-64
2023/09/25 03:33:32;;;;;;;4.77;3.23;;;;;;;7.08;100.00;100856.66;5042902;28;20798;-66
2023/09/25 03:35:57;;;;;;;6.30;3.50;;;;;;;7.05;100.00;100855.03;5063943;28;20214;-64
2023/09/25 03:38:23;;;;;;;8.07;3.93;;;;;;;7.04;100.00;100848.22;5041584;28;20211;-64
2023/09/25 03:40:49;;;;;;;5.27;3.90;;;;;;;7.01;100.00;100844.91;5053421;28;20256;-65
2023/09/25 03:43:14;;;;;;;5.13;4.40;;;;;;;7.01;100.00;100853.44;5048776;28;20192;-64
2023/09/25 03:45:39;;;;;;;7.13;4.27;;;;;;;6.98;100.00;100842.47;5067327;28;20259;-64
2023/09/25 03:48:05;;;;;;;11.67;4.20;;;;;;;6.98;100.00;100845.00;5060553;28;20200;-65
2023/09/25 03:50:30;;;;;;;6.33;4.07;;;;;;;6.90;100.00;100848.63;5054534;28;20247;-65
2023/09/25 03:53:00;;;;;;;5.73;4.20;;;;;;;6.97;100.00;100849.31;5060612;28;20263;-65
2023/09/25 03:55:26;;;;;;;6.93;4.27;;;;;;;6.94;100.00;100850.19;5072074;28;20263;-65
2023/09/25 03:57:51;;;;;;;6.73;4.43;;;;;;;6.98;100.00;100847.56;5063748;28;20274;-65
2023/09/25 04:00:16;;;;;;;6.27;4.40;;;;;;;6.97;100.00;100846.75;5044849;28;20216;-65
2023/09/25 04:02:42;;;;;;;6.20;4.73;;;;;;;7.02;100.00;100844.03;5037763;28;20208;-66
2023/09/25 04:05:09;;;;;;;7.37;4.60;;;;;;;7.02;100.00;100844.03;5053204;28;20224;-65
2023/09/25 04:07:34;;;;;;;7.10;4.53;;;;;;;6.97;100.00;100848.44;5036458;28;20192;-66
2023/09/25 04:09:59;;;;;;;6.70;4.97;;;;;;;7.00;100.00;100856.88;5052777;28;20197;-65
2023/09/25 04:12:24;;;;;;;6.07;4.27;;;;;;;7.01;100.00;100848.34;5041146;28;20236;-66
2023/09/25 04:14:53;;;;;;;6.30;4.77;;;;;;;7.04;100.00;100855.91;5034905;28;20177;-65
2023/09/25 04:17:19;;;;;;;4.87;4.37;;;;;;;6.84;100.00;100860.75;5035338;28;20187;-67
2023/09/25 04:19:44;;;;;;;7.47;4.77;;;;;;;6.93;100.00;100847.69;5034650;28;20181;-65
2023/09/25 04:22:11;;;;;;;8.23;4.67;;;;;;;6.92;100.00;100851.13;5039482;28;20297;-65
2023/09/25 04:24:37;;;;;;;8.37;4.97;;;;;;;6.90;100.00;100851.19;5014915;28;20175;-64
2023/09/25 04:27:02;;;;;;;9.03;4.67;;;;;;;6.81;100.00;100851.44;5026215;28;20228;-64
2023/09/25 04:29:28;;;;;;;6.63;4.33;;;;;;;6.87;100.00;100852.97;5032819;28;20548;-64
2023/09/25 04:31:53;;;;;;;6.27;4.23;;;;;;;6.82;100.00;100857.38;5053080;28;20274;-66
2023/09/25 04:34:18;;;;;;;5.70;4.33;;;;;;;6.82;100.00;100858.22;5034402;28;20196;-65
2023/09/25 04:36:46;;;;;;;7.47;4.30;;;;;;;6.79;100.00;100856.56;5034590;28;20190;-65
2023/09/25 04:39:11;;;;;;;7.07;4.30;;;;;;;6.78;100.00;100865.16;5034487;28;20236;-65
2023/09/25 04:41:37;;;;;;;6.70;4.07;;;;;;;6.73;100.00;100861.84;5035860;28;20229;-65
2023/09/25 04:44:04;;;;;;;8.63;5.07;;;;;;;6.87;100.00;100864.06;5032455;28;20182;-65
2023/09/25 04:46:30;;;;;;;7.23;4.40;;;;;;;6.82;100.00;100857.38;5029581;28;20182;-66
2023/09/25 04:48:55;;;;;;;6.30;3.93;;;;;;;6.83;100.00;100857.34;5033376;28;20205;-65
2023/09/25 04:51:21;;;;;;;4.97;4.20;;;;;;;6.80;100.00;100859.97;5026038;28;20233;-68
2023/09/25 04:53:46;;;;;;;7.03;4.17;;;;;;;6.76;100.00;100860.91;5031282;28;20310;-65
2023/09/25 04:56:19;;;;;;;5.10;4.43;;;;;;;6.68;100.00;100866.25;5033823;28;20192;-65
2023/09/25 04:58:44;;;;;;;5.00;4.47;;;;;;;6.73;100.00;100866.13;5033200;28;20201;-65
2023/09/25 05:01:09;;;;;;;6.47;4.83;;;;;;;6.79;100.00;100873.66;5041318;28;20316;-66
2023/09/25 05:03:35;;;;;;;6.17;4.77;;;;;;;6.65;100.00;100876.56;5051515;28;20184;-65
2023/09/25 05:06:00;;;;;;;9.67;5.00;;;;;;;6.75;100.00;100875.44;5059615;28;20543;-64
2023/09/25 05:08:25;;;;;;;7.17;5.00;;;;;;;6.82;100.00;100876.09;5063790;28;20242;-65
2023/09/25 05:10:51;;;;;;;4.90;4.50;;;;;;;6.79;100.00;100878.75;5051636;28;20235;-65
2023/09/25 05:13:16;;;;;;;6.53;4.80;;;;;;;6.76;100.00;100872.00;5081893;28;20214;-64
2023/09/25 05:15:41;;;;;;;5.17;4.57;;;;;;;6.61;100.00;100875.81;5046104;28;20193;-65
2023/09/25 05:18:07;;;;;;;9.93;5.00;;;;;;;6.76;100.00;100884.78;5063154;28;20172;-65
2023/09/25 05:20:32;;;;;;;6.70;5.27;;;;;;;6.82;100.00;100885.50;5044689;28;20748;-64
2023/09/25 05:22:58;;;;;;;7.90;4.90;;;;;;;6.82;100.00;100883.78;5040499;28;20230;-64
2023/09/25 05:25:24;;;;;;;9.23;5.50;;;;;;;6.84;100.00;100888.88;5052908;28;20188;-66
2023/09/25 05:27:51;;;;;;;6.37;5.70;;;;;;;6.86;100.00;100887.94;5048407;28;20223;-64
2023/09/25 05:30:18;;;;;;;7.63;5.77;;;;;;;6.90;100.00;100892.09;5038955;28;20207;-64
2023/09/25 05:32:48;;;;;;;9.80;5.30;;;;;;;6.92;100.00;100889.50;5071743;28;20184;-66
2023/09/25 05:35:14;;;;;;;7.47;5.23;;;;;;;7.02;100.00;100887.53;5070809;28;20187;-66
2023/09/25 05:37:41;;;;;;;7.00;5.90;;;;;;;7.04;100.00;100893.44;5061101;28;20198;-64
2023/09/25 05:40:10;;;;;;;5.83;5.13;;;;;;;7.11;100.00;100890.69;5057073;28;20192;-65
2023/09/25 05:42:40;;;;;;;7.73;5.77;;;;;;;7.20;100.00;100886.19;5061083;28;20227;-64
2023/09/25 05:45:06;;;;;;;7.07;5.20;;;;;;;7.29;100.00;100893.59;5067348;28;20184;-65
2023/09/25 05:47:32;;;;;;;8.87;5.67;;;;;;;7.40;100.00;100877.94;5070117;28;20180;-65
2023/09/25 05:49:57;;;;;;;8.13;5.33;;;;;;;7.47;100.00;100892.25;5062894;28;20585;-64
2023/09/25 05:52:23;;;;;;;5.60;5.07;;;;;;;7.49;100.00;100887.09;5056633;28;20224;-64
2023/09/25 05:54:49;;;;;;;7.33;5.93;;;;;;;7.67;100.00;100878.03;5068791;28;20196;-65
2023/09/25 05:57:14;;;;;;;8.97;5.83;;;;;;;7.79;100.00;100877.66;5060297;28;20192;-65
2023/09/25 05:59:40;;;;;;;10.07;5.57;;;;;;;7.92;100.00;100883.25;5068249;28;20173;-64
2023/09/25 06:02:06;;;;;;;9.10;5.10;;;;;;;7.89;100.00;100884.16;5048490;28;20279;-64
2023/09/25 06:04:37;;;;;;;8.27;5.47;;;;;;;8.04;100.00;100890.53;5049484;28;20201;-64
2023/09/25 06:07:03;;;;;;;6.70;5.63;;;;;;;8.13;100.00;100881.72;5052471;28;20216;-64
2023/09/25 06:09:29;;;;;;;7.57;5.40;;;;;;;8.32;100.00;100889.69;5050734;28;20232;-65
2023/09/25 06:11:55;;;;;;;6.70;6.10;;;;;;;8.49;100.00;100894.25;5054163;28;20726;-65
2023/09/25 06:14:21;;;;;;;9.37;6.03;;;;;;;8.46;100.00;100888.38;5062998;28;20200;-64
2023/09/25 06:16:47;;;;;;;7.70;5.60;;;;;;;8.73;100.00;100889.19;5056224;28;20592;-63
2023/09/25 06:19:13;;;;;;;8.03;6.47;;;;;;;8.99;100.00;100892.59;5050945;28;20181;-63
2023/09/25 06:21:38;;;;;;;11.60;5.80;;;;;;;9.43;100.00;100885.00;5061157;28;20239;-65
2023/09/25 06:24:06;;;;;;;9.57;6.13;;;;;;;9.97;100.00;100888.09;5047724;28;20643;-64
2023/09/25 06:26:31;;;;;;;8.73;5.87;;;;;;;10.71;100.00;100886.84;5052694;28;20202;-64
2023/09/25 06:28:56;;;;;;;8.23;5.90;;;;;;;10.98;100.00;100886.56;5053491;28;20240;-64
2023/09/25 06:31:23;;;;;;;10.10;6.10;;;;;;;11.64;100.00;100890.50;5027360;28;20229;-64
2023/09/25 06:33:49;;;;;;;5.90;5.13;;;;;;;12.94;100.00;100878.19;5040965;28;20278;-65
2023/09/25 06:36:14;;;;;;;5.73;4.30;;;;;;;14.27;100.00;100879.59;5059277;28;20271;-66
2023/09/25 06:38:39;;;;;;;6.03;3.77;;;;;;;16.51;100.00;100877.91;5057570;28;20546;-63
2023/09/25 06:41:05;;;;;;;5.63;3.80;;;;;;;18.90;100.00;100874.69;5041621;28;20243;-65
2023/09/25 06:43:30;;;;;;;4.47;3.50;;;;;;;19.81;94.54;100875.38;5037922;28;20226;-65
2023/09/25 06:45:55;;;;;;;4.83;2.90;;;;;;;20.92;86.07;100869.75;5028782;28;20192;-64
2023/09/25 06:48:21;;;;;;;5.70;4.37;;;;;;;21.32;73.99;100868.06;5031168;28;20190;-65
2023/09/25 06:50:46;;;;;;;4.00;3.23;;;;;;;22.09;70.06;100872.50;5028834;28;20309;-65
2023/09/25 06:53:12;;;;;;;7.77;3.60;;;;;;;22.26;66.19;100880.63;5048980;28;20185;-65
2023/09/25 06:55:39;;;;;;;5.60;3.60;;;;;;;22.66;61.23;100891.84;5028695;28;20197;-66
2023/09/25 06:58:04;;;;;;;6.97;3.43;;;;;;;22.34;62.07;100887.75;5037356;28;20186;-67
2023/09/25 07:00:30;;;;;;;4.53;2.90;;;;;;;21.52;66.66;100898.53;5041986;28;20231;-66
2023/09/25 07:02:56;;;;;;;5.27;2.67;;;;;;;22.00;65.64;100896.91;5041526;28;20177;-65
2023/09/25 07:05:21;;;;;;;3.75;2.60;;;;;;;22.22;62.42;100900.22;5050644;28;20208;-65
2023/09/25 07:07:47;;;;;;;3.50;2.67;;;;;;;21.62;68.64;100902.97;5049471;28;20272;-65
2023/09/25 07:10:13;;;;;;;12.60;2.95;;;;;;;22.43;63.93;100897.44;5032389;28;20202;-64
2023/09/25 07:12:38;;;;;;;5.07;2.30;;;;;;;23.02;56.82;100899.84;5048893;28;20554;-67
2023/09/25 07:15:05;;;;;;;6.40;2.65;;;;;;;23.20;54.84;100905.16;5048705;28;20193;-65
2023/09/25 07:17:30;;;;;;;5.32;2.35;;;;;;;23.19;55.45;100908.75;5065561;28;20177;-65
2023/09/25 07:19:56;;;;;;;4.10;2.38;;;;;;;22.24;57.85;100904.34;5050975;28;20173;-65
2023/09/25 07:22:24;;;;;;;5.20;2.50;;;;;;;23.06;56.61;100903.84;5047122;28;20240;-64
2023/09/25 07:24:50;;;;;;;2.38;2.10;;;;;;;23.01;54.51;100900.84;5045517;28;20789;-65
2023/09/25 07:27:16;;;;;;;2.97;2.53;;;;;;;23.41;54.84;100904.91;5048471;28;20323;-64
2023/09/25 07:29:42;;;;;;;3.20;2.65;;;;;;;23.05;54.11;100904.81;5059230;28;20272;-64
2023/09/25 07:32:08;;;;;;;5.72;2.13;;;;;;;22.28;59.53;100894.41;4999220;28;20229;-64
2023/09/25 07:34:34;;;;;;;6.32;2.53;;;;;;;20.67;73.80;100899.75;5045611;28;20637;-65
2023/09/25 07:37:00;;;;;;;3.97;2.00;;;;;;;21.29;72.71;100898.75;5035137;28;20201;-65
2023/09/25 07:39:26;;;;;;;6.40;2.25;;;;;;;20.98;70.30;100900.59;5035750;28;20548;-64
2023/09/25 07:41:52;;;;;;;3.78;2.40;;;;;;;21.43;67.94;100900.19;5031177;28;20228;-65
2023/09/25 07:44:18;;;;;;;4.75;2.35;;;;;;;20.54;80.12;100899.94;5034900;28;20184;-65
2023/09/25 07:46:44;;;;;;;4.17;2.40;;;;;;;20.84;73.50;100893.94;5034474;28;20178;-65
2023/09/25 07:49:09;;;;;;;4.13;2.35;;;;;;;20.43;78.63;100898.25;5034717;28;20178;-64
2023/09/25 07:51:35;;;;;;;3.60;2.40;;;;;;;19.12;86.96;100899.97;5041214;28;20224;-67
2023/09/25 07:54:02;;;;;;;6.07;2.23;;;;;;;18.13;95.29;100893.53;5069985;28;20189;-63
2023/09/25 07:56:28;;;;;;;3.47;2.00;;;;;;;18.81;91.66;100898.88;5054135;28;20226;-64
2023/09/25 07:58:55;;;;;;;4.23;2.00;;;;;;;19.55;87.17;100898.38;5050298;28;20214;-64
2023/09/25 08:01:22;;;;;;;2.63;2.20;;;;;;;18.05;95.82;100894.13;5061837;28;20224;-64
2023/09/25 08:03:49;;;;;;;2.70;2.07;;;;;;;17.50;100.00;100897.13;5067565;28;20186;-64
2023/09/25 08:06:15;;;;;;;4.53;2.20;;;;;;;17.30;100.00;100900.31;5046939;28;20184;-66
2023/09/25 08:08:40;;;;;;;3.00;2.23;;;;;;;16.72;100.00;100904.19;5061211;28;20184;-64
2023/09/25 08:11:06;;;;;;;2.73;2.53;;;;;;;16.01;100.00;100902.84;5049326;28;20213;-65
2023/09/25 08:13:31;;;;;;;4.37;2.50;;;;;;;15.90;100.00;100899.19;5060901;28;20637;-64
2023/09/25 08:16:04;;;;;;;5.10;2.63;;;;;;;15.90;100.00;100906.13;5055097;28;20219;-65
2023/09/25 08:18:29;;;;;;;5.30;3.10;;;;;;;15.39;100.00;100904.09;5048195;28;20197;-65
2023/09/25 08:20:55;;;;;;;4.07;2.70;;;;;;;15.84;100.00;100914.28;5047915;28;20628;-65
2023/09/25 08:23:20;;;;;;;5.37;2.90;;;;;;;15.88;100.00;100916.59;5062276;28;20178;-63
2023/09/25 08:25:45;;;;;;;4.13;2.07;;;;;;;15.41;100.00;100910.84;5047131;28;20176;-65
2023/09/25 08:28:10;;;;;;;3.37;2.50;;;;;;;14.83;100.00;100917.81;5046601;28;20204;-65
2023/09/25 08:30:36;;;;;;;3.43;2.20;;;;;;;14.68;100.00;100909.19;5048617;28;20679;-84
2023/09/25 08:33:01;;;;;;;6.47;2.87;;;;;;;14.76;100.00;100906.13;5052576;28;20166;-70
2023/09/25 08:35:26;;;;;;;4.93;3.10;;;;;;;15.10;100.00;100912.72;5043378;28;20198;-72
2023/09/25 08:37:51;;;;;;;5.63;2.70;;;;;;;15.28;100.00;100908.19;5052855;28;20275;-72
2023/09/25 08:40:17;;;;;;;3.63;2.67;;;;;;;15.40;100.00;100905.75;5043079;28;20173;-72
2023/09/25 08:42:43;;;;;;;3.43;2.70;;;;;;;15.72;100.00;100906.31;5070619;28;20177;-69
2023/09/25 08:45:08;;;;;;;5.27;2.60;;;;;;;15.61;100.00;100904.41;5064566;28;20188;-70
2023/09/25 08:47:35;;;;;;;4.20;2.50;;;;;;;15.92;100.00;100901.66;5041881;28;20497;-74
2023/09/25 08:50:02;;;;;;;4.77;2.40;;;;;;;16.30;100.00;100895.75;5043046;28;20292;-70
2023/09/25 08:52:28;;;;;;;3.00;2.80;;;;;;;16.65;100.00;100897.75;5035416;28;20225;-70
2023/09/25 08:54:53;;;;;;;8.73;3.20;;;;;;;16.85;100.00;100908.56;5042543;28;20579;-71
2023/09/25 08:57:19;;;;;;;3.73;2.83;;;;;;;17.96;100.00;100903.44;5044569;28;20181;-72
2023/09/25 08:59:46;;;;;;;3.30;2.43;;;;;;;19.05;94.21;100905.78;5053904;28;20196;-70
2023/09/25 09:02:12;;;;;;;5.17;2.80;;;;;;;19.85;87.73;100902.09;5040370;28;20299;-72
2023/09/25 09:04:38;;;;;;;4.13;2.20;;;;;;;22.02;71.27;100900.22;5052959;28;20225;-70
2023/09/25 09:07:04;;;;;;;2.83;2.33;;;;;;;21.87;62.00;100899.81;5051922;28;20213;-72
2023/09/25 09:09:30;;;;;;;5.30;2.40;;;;;;;23.20;54.75;100913.03;5051726;28;20189;-69
2023/09/25 09:11:57;;;;;;;4.57;2.10;;;;;;;23.11;54.63;100895.50;5032737;28;20232;-75
2023/09/25 09:14:40;;;;;;;6.10;2.63;;;;;;;23.34;51.80;100909.94;5051297;28;20185;-69
2023/09/25 09:17:07;;;;;;;5.63;2.25;;;;;;;24.58;48.59;100904.88;5051793;28;20185;-71
2023/09/25 09:19:47;;;;;;;2.90;1.88;;;;;;;24.87;46.41;100906.34;5052426;28;20286;-73
2023/09/25 09:22:15;;;;;;;4.90;2.10;;;;;;;24.42;47.65;100914.31;5050839;28;20236;-70
2023/09/25 09:24:41;;;;;;;5.68;2.75;;;;;;;22.99;54.24;100902.75;5041328;28;20571;-70
2023/09/25 09:27:07;;;;;;;2.95;2.17;;;;;;;23.29;55.21;100898.22;5046272;28;20565;-70
2023/09/25 09:29:41;;;;;;;3.85;2.13;;;;;;;24.94;46.73;100894.22;5052536;28;20272;-73
2023/09/25 09:32:08;;;;;;;6.35;2.47;;;;;;;26.65;43.21;100893.63;5038666;28;20225;-73
2023/09/25 09:34:34;;;;;;;3.47;2.33;;;;;;;26.70;41.93;100893.94;5051478;28;20200;-75
2023/09/25 09:37:00;;;;;;;5.05;2.17;;;;;;;26.06;42.93;100899.19;5052073;28;20815;-72
2023/09/25 09:39:26;;;;;;;4.35;2.35;;;;;;;26.79;41.62;100902.69;5048510;28;20730;-71
2023/09/25 09:41:53;;;;;;;6.97;1.90;;;;;;;26.68;40.97;100903.88;5047380;28;20229;-73
2023/09/25 09:44:19;;;;;;;4.55;2.10;;;;;;;26.41;40.12;100897.19;5042706;28;20187;-73
2023/09/25 09:46:50;;;;;;;2.47;2.00;;;;;;;25.67;41.71;100898.03;5043392;28;20188;-74
2023/09/25 09:49:19;;;;;;;3.30;2.08;;;;;;;24.62;45.17;100896.50;5049855;28;20186;-72
2023/09/25 09:51:45;;;;;;;2.83;1.95;;;;;;;25.61;43.47;100896.88;5022842;28;20252;-74
2023/09/25 09:54:12;;;;;;;5.63;2.20;;;;;;;25.96;40.84;100894.06;5032379;28;20186;-73
2023/09/25 09:56:38;;;;;;;5.22;2.20;;;;;;;27.20;38.99;100893.75;5046876;28;20276;-70
2023/09/25 09:59:04;;;;;;;4.22;1.83;;;;;;;25.93;40.66;100899.69;5042773;28;20189;-71
2023/09/25 10:04:51;;;;;;;5.05;2.20;;;;;;;25.88;41.95;100883.53;5027954;28;20571;-70
2023/09/25 10:07:17;;;;;;;5.72;1.92;;;;;;;26.18;39.35;100882.03;5038946;28;20190;-72
2023/09/25 10:10:04;;;;;;;4.45;2.15;;;;;;;25.72;40.24;100882.53;5036987;28;20227;-71
2023/09/25 10:12:48;;;;;;;6.50;2.22;;;;;;;26.78;38.34;100877.31;5052886;28;20229;-69
2023/09/25 10:15:20;;;;;;;6.35;2.10;;;;;;;26.85;38.45;100874.78;5039144;28;20185;-71
2023/09/25 10:17:46;;;;;;;6.03;1.95;;;;;;;26.42;39.49;100872.47;5050697;28;20641;-73
2023/09/25 10:20:34;;;;;;;4.40;1.85;;;;;;;25.32;41.41;100867.47;5042808;28;20182;-69
2023/09/25 10:23:07;;;;;;;5.65;2.38;;;;;;;24.20;45.93;100870.97;5049848;28;20229;-71
2023/09/25 10:25:55;;;;;;;2.20;1.65;;;;;;;21.64;54.53;100865.22;5049791;28;20177;-70
2023/09/25 10:28:23;;;;;;;2.88;1.85;;;;;;;20.51;59.36;100867.06;5063265;28;20275;-68
2023/09/25 10:30:49;;;;;;;3.90;1.83;;;;;;;20.05;62.58;100866.50;5035032;28;20236;-70
2023/09/25 10:33:20;;;;;;;2.65;1.60;;;;;;;19.71;71.20;100866.66;5056133;28;20196;-73
2023/09/25 10:35:49;;;;;;;3.03;1.87;;;;;;;19.55;79.65;100864.44;5069185;28;20185;-71
2023/09/25 10:38:21;;;;;;;2.57;1.90;;;;;;;19.35;80.41;100869.47;5056956;28;20197;-71
2023/09/25 10:40:54;;;;;;;2.87;1.83;;;;;;;19.32;80.54;100861.06;5052149;28;20214;-70
2023/09/25 10:43:22;;;;;;;3.30;2.07;;;;;;;19.18;84.74;100867.38;5053273;28;20193;-72
2023/09/25 10:45:48;;;;;;;3.80;2.20;;;;;;;18.94;85.21;100860.53;5051298;28;20197;-73
2023/09/25 10:48:14;;;;;;;3.80;2.17;;;;;;;18.69;85.25;100864.16;5051260;28;20199;-74
2023/09/25 10:50:40;;;;;;;3.47;1.93;;;;;;;18.87;88.25;100865.34;5047112;28;20288;-72
2023/09/25 10:53:10;;;;;;;2.93;2.10;;;;;;;18.95;86.72;100863.94;5046207;28;20293;-71
2023/09/25 10:55:36;;;;;;;4.03;1.90;;;;;;;19.21;82.99;100853.25;5031047;28;20257;-72
2023/09/25 10:58:03;;;;;;;2.47;2.10;;;;;;;19.04;83.69;100852.81;5031734;28;20177;-72
2023/09/25 11:00:28;;;;;;;2.00;1.80;;;;;;;19.25;83.88;100852.06;5027290;28;20225;-72
2023/09/25 11:02:54;;;;;;;3.37;2.00;;;;;;;19.32;81.96;100850.63;5051371;28;20196;-72
2023/09/25 11:05:21;;;;;;;2.23;1.90;;;;;;;19.10;81.46;100860.16;5056195;28;20191;-70
2023/09/25 11:07:47;;;;;;;2.83;1.97;;;;;;;18.99;79.70;100853.19;5054392;28;20664;-71
2023/09/25 11:10:13;;;;;;;3.50;2.00;;;;;;;18.78;83.03;100852.19;5034761;28;20284;-68
2023/09/25 11:12:40;;;;;;;3.23;1.90;;;;;;;18.66;84.04;100856.59;5018651;28;20182;-71
2023/09/25 11:15:11;;;;;;;1.90;1.70;;;;;;;18.66;84.93;100843.56;5030403;28;20187;-71
2023/09/25 11:17:39;;;;;;;3.07;1.70;;;;;;;18.77;85.04;100834.91;5032684;28;20649;-70
2023/09/25 11:20:11;;;;;;;4.03;2.00;;;;;;;18.91;82.46;100839.91;5026822;28;20528;-71
2023/09/25 11:22:38;;;;;;;3.07;1.97;;;;;;;18.84;84.24;100830.88;5063108;28;20316;-70
2023/09/25 11:25:10;;;;;;;2.33;1.87;;;;;;;18.62;81.75;100829.94;5050936;28;20186;-71